Time;durP1;ratioP1;P1;durP2;ratioP2;P2;SDS_P1;SDS_P2;PMS_P1;PMS_P2;Temp;Humidity;BMP_temperature;BMP_pressure;BME280_temperature;BME280_humidity;BME280_pressure;Samples;Min_cycle;Max_cycle;Signal;HPM_P1;HPM_P2
2022/10/14 00:01:57;;;;;;;11.05;8.68;;;11.30;99.90;;;;;;5053324;28;20056;-64
2022/10/14 00:04:24;;;;;;;9.65;7.18;;;11.30;99.90;;;;;;5051251;28;20060;-64
2022/10/14 00:06:51;;;;;;;8.85;7.25;;;11.30;99.90;;;;;;5053366;28;20045;-64
2022/10/14 00:09:17;;;;;;;9.05;6.90;;;11.30;99.90;;;;;;5051842;28;20045;-64
2022/10/14 00:11:44;;;;;;;10.43;7.13;;;11.30;99.90;;;;;;5052472;28;20040;-64
2022/10/14 00:14:13;;;;;;;11.88;7.60;;;11.30;99.90;;;;;;5051621;28;20041;-64
2022/10/14 00:16:41;;;;;;;10.95;7.78;;;11.30;99.90;;;;;;5052584;28;20049;-64
2022/10/14 00:19:08;;;;;;;7.68;6.68;;;11.30;99.90;;;;;;5051821;28;20110;-64
2022/10/14 00:21:36;;;;;;;11.00;7.00;;;11.30;99.90;;;;;;5051411;28;20091;-64
2022/10/14 00:24:03;;;;;;;10.77;7.80;;;11.40;99.90;;;;;;5051548;28;20396;-64
2022/10/14 00:26:35;;;;;;;7.22;6.32;;;11.40;99.90;;;;;;5035113;28;20078;-64
2022/10/14 00:29:02;;;;;;;10.85;7.03;;;11.40;99.90;;;;;;5035547;28;20103;-64
2022/10/14 00:31:29;;;;;;;9.57;7.43;;;11.30;99.90;;;;;;5051560;28;20052;-64
2022/10/14 00:33:56;;;;;;;8.18;7.38;;;11.30;99.90;;;;;;5051110;28;20507;-64
2022/10/14 00:36:23;;;;;;;8.13;6.80;;;11.30;99.90;;;;;;5055733;28;20441;-64
2022/10/14 00:38:51;;;;;;;9.70;6.97;;;11.40;99.90;;;;;;5056033;28;20052;-64
2022/10/14 00:41:23;;;;;;;8.57;7.70;;;11.30;99.90;;;;;;5055100;28;20075;-64
2022/10/14 00:44:01;;;;;;;10.50;7.68;;;11.30;99.90;;;;;;5054991;28;20071;-64
2022/10/14 00:46:47;;;;;;;9.30;7.85;;;11.30;99.90;;;;;;5039457;28;20044;-64
2022/10/14 00:49:26;;;;;;;8.93;8.02;;;11.40;99.90;;;;;;5055524;28;20465;-66
2022/10/14 00:52:11;;;;;;;8.55;7.65;;;11.40;99.90;;;;;;5055027;28;20094;-64
2022/10/14 00:54:40;;;;;;;8.43;7.47;;;11.40;99.90;;;;;;5056003;28;20098;-64
2022/10/14 00:57:08;;;;;;;9.00;7.03;;;11.40;99.90;;;;;;5055209;28;20103;-64
2022/10/14 00:59:35;;;;;;;9.30;7.35;;;11.30;99.90;;;;;;5055098;28;20040;-64
2022/10/14 01:02:02;;;;;;;8.95;7.03;;;11.30;99.90;;;;;;5054925;28;20098;-64
2022/10/14 01:04:29;;;;;;;10.88;7.07;;;11.30;99.90;;;;;;5054573;28;20084;-64
2022/10/14 01:07:37;;;;;;;8.60;7.50;;;11.30;99.90;;;;;;5054968;28;20503;-64
2022/10/14 01:10:26;;;;;;;10.00;8.40;;;11.40;99.90;;;;;;5055836;28;20059;-63
2022/10/14 01:12:55;;;;;;;8.87;7.50;;;11.40;99.90;;;;;;5055943;28;20045;-63
2022/10/14 01:15:39;;;;;;;;;;;11.30;99.90;;;;;;5056042;28;20281;-64
2022/10/14 01:18:15;;;;;;;7.72;6.45;;;11.30;99.90;;;;;;5088391;28;19921;-64
2022/10/14 01:21:03;;;;;;;11.00;8.27;;;11.30;99.90;;;;;;5054486;28;20182;-64
2022/10/14 01:23:33;;;;;;;9.48;7.07;;;11.30;99.90;;;;;;5055606;28;20087;-63
2022/10/14 01:26:35;;;;;;;9.93;7.82;;;11.30;99.90;;;;;;5056512;28;20037;-64
2022/10/14 01:29:46;;;;;;;12.35;7.68;;;11.30;99.90;;;;;;5054741;28;20041;-63
2022/10/14 01:32:22;;;;;;;8.90;7.38;;;11.30;99.90;;;;;;5045349;28;20048;-64
2022/10/14 01:35:09;;;;;;;9.73;7.88;;;11.20;99.90;;;;;;5037801;28;20041;-63
2022/10/14 01:37:38;;;;;;;11.05;7.50;;;11.20;99.90;;;;;;5055107;28;20044;-64
2022/10/14 01:40:08;;;;;;;9.18;7.60;;;11.20;99.90;;;;;;5053948;28;20041;-64
2022/10/14 01:42:36;;;;;;;9.18;7.53;;;11.20;99.90;;;;;;5055967;28;20041;-64
2022/10/14 01:45:10;;;;;;;10.50;9.20;;;11.20;99.90;;;;;;5053870;28;20400;-64
2022/10/14 01:47:37;;;;;;;12.32;9.02;;;11.20;99.90;;;;;;5052686;28;20473;-64
2022/10/14 01:50:18;;;;;;;12.25;8.43;;;11.20;99.90;;;;;;5054060;28;20079;-64
2022/10/14 01:52:58;;;;;;;10.48;8.38;;;11.20;99.90;;;;;;5054551;28;20095;-64
2022/10/14 01:55:27;;;;;;;9.10;7.63;;;11.10;99.90;;;;;;5037322;28;20051;-64
2022/10/14 01:57:54;;;;;;;11.35;9.15;;;11.00;99.90;;;;;;5053744;28;20120;-64
2022/10/14 02:00:21;;;;;;;11.70;9.50;;;11.00;99.90;;;;;;5053878;28;20049;-63
2022/10/14 02:02:48;;;;;;;12.20;8.88;;;11.00;99.90;;;;;;5055320;28;20045;-63
2022/10/14 02:05:50;;;;;;;11.05;8.25;;;11.00;99.90;;;;;;5054661;28;20041;-63
2022/10/14 02:08:48;;;;;;;13.27;9.18;;;10.90;99.90;;;;;;5054668;28;20049;-63
2022/10/14 02:11:18;;;;;;;10.02;7.28;;;10.90;99.90;;;;;;5051032;28;20041;-63
2022/10/14 02:14:11;;;;;;;12.10;8.25;;;10.90;99.90;;;;;;5054327;28;20398;-63
2022/10/14 02:17:00;;;;;;;12.55;8.65;;;10.90;99.90;;;;;;5055265;28;20098;-63
2022/10/14 02:19:36;;;;;;;13.05;9.00;;;10.80;99.90;;;;;;5053638;28;20052;-63
2022/10/14 02:22:18;;;;;;;9.90;7.60;;;10.80;99.90;;;;;;5054181;28;20041;-63
2022/10/14 02:24:49;;;;;;;9.95;8.10;;;10.80;99.90;;;;;;5053979;28;20075;-63
2022/10/14 02:27:17;;;;;;;12.50;8.25;;;10.80;99.90;;;;;;5053145;28;20061;-63
2022/10/14 02:29:45;;;;;;;8.85;7.35;;;10.90;99.90;;;;;;5053077;28;20076;-63
2022/10/14 02:32:16;;;;;;;10.25;7.43;;;10.90;99.90;;;;;;5053007;28;20045;-63
2022/10/14 02:34:44;;;;;;;10.23;7.70;;;10.90;99.90;;;;;;5037240;28;20114;-63
2022/10/14 02:37:11;;;;;;;9.00;7.38;;;10.90;99.90;;;;;;5053315;28;20224;-63
2022/10/14 02:39:40;;;;;;;12.63;8.15;;;10.90;99.90;;;;;;5053012;28;20496;-63
2022/10/14 02:42:07;;;;;;;8.75;7.05;;;10.90;99.90;;;;;;5036626;28;20067;-63
2022/10/14 02:44:34;;;;;;;9.20;7.68;;;10.90;99.90;;;;;;5054154;28;20443;-63
2022/10/14 02:47:01;;;;;;;14.90;8.57;;;10.90;99.90;;;;;;5053247;28;20053;-64
2022/10/14 02:49:28;;;;;;;10.65;8.07;;;10.90;99.90;;;;;;5053828;28;20045;-64
2022/10/14 02:51:55;;;;;;;9.68;7.53;;;10.90;99.90;;;;;;5035930;28;20079;-64
2022/10/14 02:54:21;;;;;;;11.18;9.05;;;10.90;99.90;;;;;;5053599;28;20094;-64
2022/10/14 02:56:48;;;;;;;9.88;8.13;;;10.90;99.90;;;;;;5052547;28;20053;-64
2022/10/14 02:59:15;;;;;;;11.23;8.00;;;10.90;99.90;;;;;;5053514;28;20055;-64
2022/10/14 03:01:42;;;;;;;9.15;8.20;;;11.00;99.90;;;;;;5052298;28;20045;-64
2022/10/14 03:04:09;;;;;;;11.48;8.60;;;11.00;99.90;;;;;;5053362;28;20126;-64
2022/10/14 03:06:36;;;;;;;10.00;8.73;;;11.00;99.90;;;;;;5053495;28;20103;-63
2022/10/14 03:09:03;;;;;;;12.32;9.05;;;11.00;99.90;;;;;;5053749;28;20045;-63
2022/10/14 03:11:30;;;;;;;11.90;9.48;;;11.00;99.90;;;;;;5053341;28;20052;-63
2022/10/14 03:13:57;;;;;;;12.70;9.13;;;11.00;99.90;;;;;;5053304;28;20472;-63
2022/10/14 03:16:23;;;;;;;11.90;9.55;;;11.10;99.90;;;;;;5053683;28;20067;-64
2022/10/14 03:18:50;;;;;;;11.52;10.05;;;11.10;99.90;;;;;;5052924;28;20106;-63
2022/10/14 03:21:17;;;;;;;14.57;10.38;;;11.10;99.90;;;;;;5054982;28;20048;-63
2022/10/14 03:23:44;;;;;;;13.52;9.43;;;11.10;99.90;;;;;;5053857;28;20048;-63
2022/10/14 03:26:11;;;;;;;15.48;10.90;;;11.10;99.90;;;;;;5053789;28;20423;-63
2022/10/14 03:28:39;;;;;;;12.60;9.97;;;11.10;99.90;;;;;;5051967;28;20455;-63
2022/10/14 03:31:06;;;;;;;12.27;9.90;;;11.20;99.90;;;;;;5053321;28;20486;-64
2022/10/14 03:33:33;;;;;;;13.95;10.63;;;11.20;99.90;;;;;;5053607;28;20166;-63
2022/10/14 03:36:00;;;;;;;14.07;10.68;;;11.10;99.90;;;;;;5053011;28;20437;-63
2022/10/14 03:38:27;;;;;;;14.95;10.80;;;11.10;99.90;;;;;;5051716;28;20076;-63
2022/10/14 03:40:54;;;;;;;13.85;10.35;;;11.20;99.90;;;;;;5051789;28;20048;-63
2022/10/14 03:43:21;;;;;;;12.82;10.27;;;11.10;99.90;;;;;;5053267;28;20083;-64
2022/10/14 03:45:47;;;;;;;15.43;9.77;;;11.10;99.90;;;;;;5035962;28;20056;-63
2022/10/14 03:48:14;;;;;;;18.10;11.00;;;11.20;99.90;;;;;;5051694;28;20535;-64
2022/10/14 03:50:41;;;;;;;13.70;10.02;;;11.10;99.90;;;;;;5053163;28;20052;-63
2022/10/14 03:53:08;;;;;;;12.80;10.35;;;11.20;99.90;;;;;;5053358;28;20090;-64
2022/10/14 03:55:35;;;;;;;15.00;10.73;;;11.20;99.90;;;;;;5052734;28;20095;-64
2022/10/14 03:58:02;;;;;;;12.57;10.07;;;11.20;99.90;;;;;;5053464;28;20055;-64
2022/10/14 04:00:29;;;;;;;14.40;11.10;;;11.20;99.90;;;;;;5052194;28;20041;-64
2022/10/14 04:02:55;;;;;;;15.18;11.68;;;11.20;99.90;;;;;;5051431;28;20049;-63
2022/10/14 04:05:22;;;;;;;14.65;10.70;;;11.20;99.90;;;;;;5035700;28;20048;-63
2022/10/14 04:07:49;;;;;;;13.73;10.35;;;11.20;99.90;;;;;;5053150;28;20049;-66
2022/10/14 04:10:16;;;;;;;14.82;10.48;;;11.20;99.90;;;;;;5052494;28;20046;-63
2022/10/14 04:12:43;;;;;;;16.88;10.75;;;11.20;99.90;;;;;;5053176;28;20076;-63
2022/10/14 04:15:10;;;;;;;11.95;9.98;;;11.20;99.90;;;;;;5052049;28;20427;-63
2022/10/14 04:17:37;;;;;;;12.00;9.65;;;11.20;99.90;;;;;;5051555;28;20053;-63
2022/10/14 04:20:04;;;;;;;12.77;9.80;;;11.20;99.90;;;;;;5051251;28;20469;-63
2022/10/14 04:22:32;;;;;;;17.00;10.40;;;11.20;99.90;;;;;;5052472;28;20045;-63
2022/10/14 04:24:58;;;;;;;14.50;10.50;;;11.20;99.90;;;;;;5034845;28;20141;-63
2022/10/14 04:27:25;;;;;;;14.68;11.57;;;11.20;99.90;;;;;;5051115;28;20071;-63
2022/10/14 04:29:52;;;;;;;14.63;10.57;;;11.20;99.90;;;;;;5051402;28;20044;-63
2022/10/14 04:32:19;;;;;;;12.80;10.45;;;11.20;99.90;;;;;;5051393;28;20122;-63
2022/10/14 04:34:46;;;;;;;16.55;11.98;;;11.20;99.90;;;;;;5051209;28;20048;-63
2022/10/14 04:37:13;;;;;;;12.45;10.35;;;11.20;99.90;;;;;;5052145;28;20095;-63
2022/10/14 04:39:40;;;;;;;14.45;11.10;;;11.20;99.90;;;;;;5053317;28;20087;-64
2022/10/14 04:42:07;;;;;;;14.25;10.85;;;11.20;99.90;;;;;;5052681;28;20090;-64
2022/10/14 04:44:34;;;;;;;13.07;10.20;;;11.20;99.90;;;;;;5050943;28;20080;-63
2022/10/14 04:47:01;;;;;;;14.60;10.70;;;11.20;99.90;;;;;;5052786;28;20064;-64
2022/10/14 04:49:27;;;;;;;15.98;11.63;;;11.20;99.90;;;;;;5051215;28;20095;-64
2022/10/14 04:51:54;;;;;;;12.38;9.38;;;11.20;99.90;;;;;;5051266;28;20433;-64
2022/10/14 04:54:21;;;;;;;14.05;10.95;;;11.20;99.90;;;;;;5051142;28;20041;-63
2022/10/14 04:56:48;;;;;;;13.13;10.20;;;11.20;99.90;;;;;;5052432;28;20045;-63
2022/10/14 04:59:15;;;;;;;13.48;10.20;;;11.20;99.90;;;;;;5052174;28;20045;-63
2022/10/14 05:01:42;;;;;;;13.75;9.90;;;11.20;99.90;;;;;;5051258;28;20077;-63
2022/10/14 05:04:08;;;;;;;14.18;10.32;;;11.20;99.90;;;;;;5052588;28;20053;-63
2022/10/14 05:06:36;;;;;;;16.50;11.18;;;11.20;99.90;;;;;;5053088;28;20041;-63
2022/10/14 05:09:04;;;;;;;15.40;11.23;;;11.20;99.90;;;;;;5050963;28;20048;-63
2022/10/14 05:11:31;;;;;;;12.90;10.35;;;11.20;99.90;;;;;;5067506;28;20099;-64
2022/10/14 05:13:59;;;;;;;17.17;11.75;;;11.20;99.90;;;;;;5050843;28;20040;-64
2022/10/14 05:16:26;;;;;;;14.45;11.40;;;11.30;99.90;;;;;;5051252;28;20468;-63
2022/10/14 05:18:53;;;;;;;12.70;10.75;;;11.30;99.90;;;;;;5052098;28;20102;-64
2022/10/14 05:21:20;;;;;;;13.68;11.55;;;11.30;99.90;;;;;;5069268;28;20041;-64
2022/10/14 05:23:47;;;;;;;19.40;12.88;;;11.30;99.90;;;;;;5056653;28;20052;-63
2022/10/14 05:26:14;;;;;;;15.27;11.70;;;11.30;99.90;;;;;;5056631;28;20045;-63
2022/10/14 05:28:41;;;;;;;17.08;11.02;;;11.20;99.90;;;;;;5055621;28;20065;-64
2022/10/14 05:31:08;;;;;;;17.95;10.57;;;11.20;99.90;;;;;;5055886;28;20080;-63
2022/10/14 05:33:35;;;;;;;15.38;11.50;;;11.30;99.90;;;;;;5055805;28;20037;-63
2022/10/14 05:36:02;;;;;;;13.77;11.85;;;11.30;99.90;;;;;;5038113;28;20045;-63
2022/10/14 05:38:32;;;;;;;13.90;10.80;;;11.30;99.90;;;;;;5054485;28;20040;-64
2022/10/14 05:41:00;;;;;;;13.82;10.68;;;11.30;99.90;;;;;;5071722;28;20041;-63
2022/10/14 05:43:27;;;;;;;14.77;11.05;;;11.30;99.90;;;;;;5037613;28;20036;-63
2022/10/14 05:45:58;;;;;;;17.60;11.55;;;11.30;99.90;;;;;;5055229;28;20037;-64
2022/10/14 05:48:25;;;;;;;14.20;10.75;;;11.30;99.90;;;;;;5055550;28;20126;-63
2022/10/14 05:50:52;;;;;;;13.57;11.15;;;11.30;99.90;;;;;;5054386;28;20045;-64
2022/10/14 05:53:19;;;;;;;15.77;11.77;;;11.20;99.90;;;;;;5054987;28;20091;-64
2022/10/14 05:55:46;;;;;;;12.10;9.77;;;11.20;99.90;;;;;;5055331;28;20049;-64
2022/10/14 05:58:13;;;;;;;17.67;11.15;;;11.30;99.90;;;;;;5053990;28;20097;-64
2022/10/14 06:00:40;;;;;;;15.13;11.07;;;11.20;99.90;;;;;;5054037;28;20098;-64
2022/10/14 06:03:09;;;;;;;11.45;10.00;;;11.20;99.90;;;;;;5053518;28;20049;-63
2022/10/14 06:05:36;;;;;;;12.50;9.57;;;11.20;99.90;;;;;;5053997;28;20051;-63
2022/10/14 06:08:04;;;;;;;12.90;10.02;;;11.20;99.90;;;;;;5053880;28;20055;-63
2022/10/14 06:10:30;;;;;;;14.68;10.35;;;11.20;99.90;;;;;;5053420;28;20052;-63
2022/10/14 06:12:57;;;;;;;17.85;11.32;;;11.20;99.90;;;;;;5053996;28;20087;-63
2022/10/14 06:15:24;;;;;;;15.90;11.07;;;11.10;99.90;;;;;;5054342;28;20040;-63
2022/10/14 06:17:51;;;;;;;12.40;9.80;;;11.20;99.90;;;;;;5036761;28;20457;-64
2022/10/14 06:20:18;;;;;;;14.93;10.27;;;11.20;99.90;;;;;;5053629;28;20411;-63
2022/10/14 06:22:45;;;;;;;55.88;41.17;;;11.20;99.90;;;;;;5070663;28;20053;-63
2022/10/14 06:25:11;;;;;;;94.20;76.53;;;11.20;99.90;;;;;;5036754;28;20094;-64
2022/10/14 06:27:38;;;;;;;59.22;45.58;;;11.10;99.90;;;;;;5053342;28;20041;-64
2022/10/14 06:30:06;;;;;;;28.00;19.75;;;11.20;99.90;;;;;;5054236;28;20048;-64
2022/10/14 06:32:32;;;;;;;17.33;12.75;;;11.20;99.90;;;;;;5036842;28;20198;-64
2022/10/14 06:34:59;;;;;;;18.73;13.63;;;11.20;99.90;;;;;;5054763;28;20098;-67
2022/10/14 06:37:26;;;;;;;17.67;11.50;;;11.20;99.90;;;;;;5054264;28;20477;-65
2022/10/14 06:39:53;;;;;;;17.40;11.50;;;11.20;99.90;;;;;;5052977;28;20053;-66
2022/10/14 06:42:20;;;;;;;37.15;27.55;;;11.20;99.90;;;;;;5053276;28;20376;-67
2022/10/14 06:44:47;;;;;;;19.42;15.68;;;11.20;99.90;;;;;;5054472;28;20041;-67
2022/10/14 06:47:14;;;;;;;24.55;17.77;;;11.30;99.90;;;;;;5053334;28;20098;-67
2022/10/14 06:49:41;;;;;;;22.30;14.90;;;11.30;99.90;;;;;;5052987;28;20056;-65
2022/10/14 06:52:08;;;;;;;17.85;11.43;;;11.30;99.90;;;;;;5052900;28;20098;-63
2022/10/14 06:54:35;;;;;;;18.85;11.98;;;11.40;99.90;;;;;;5052754;28;20076;-62
2022/10/14 06:57:05;;;;;;;13.30;9.48;;;11.50;99.90;;;;;;5054545;28;20071;-63
2022/10/14 06:59:32;;;;;;;15.23;9.25;;;11.50;99.90;;;;;;5054248;28;20072;-63
2022/10/14 07:01:59;;;;;;;17.77;8.80;;;11.50;99.90;;;;;;5053152;28;20056;-62
2022/10/14 07:04:26;;;;;;;14.23;9.95;;;11.60;99.90;;;;;;5052626;28;20080;-62
2022/10/14 07:06:54;;;;;;;14.80;9.27;;;11.60;99.90;;;;;;5036239;28;20045;-63
2022/10/14 07:09:20;;;;;;;15.27;8.10;;;11.70;99.90;;;;;;5036440;28;20052;-62
2022/10/14 07:11:47;;;;;;;14.77;7.32;;;11.70;99.90;;;;;;5053050;28;20476;-62
2022/10/14 07:14:14;;;;;;;13.88;8.60;;;11.70;99.90;;;;;;5053386;28;20112;-62
2022/10/14 07:16:44;;;;;;;13.90;7.20;;;11.80;99.90;;;;;;5053766;28;20048;-62
2022/10/14 07:19:12;;;;;;;11.75;7.85;;;11.90;99.90;;;;;;5053912;28;20097;-62
2022/10/14 07:21:40;;;;;;;11.55;7.43;;;11.90;99.90;;;;;;5052175;28;20090;-62
2022/10/14 07:24:08;;;;;;;15.38;7.60;;;12.00;99.90;;;;;;5053979;28;20115;-63
2022/10/14 07:26:34;;;;;;;18.98;9.15;;;12.00;99.90;;;;;;5052419;28;20052;-62
2022/10/14 07:29:03;;;;;;;11.25;8.50;;;12.10;99.90;;;;;;5052200;28;20048;-62
2022/10/14 07:31:30;;;;;;;11.48;7.93;;;12.10;99.90;;;;;;5053158;28;20040;-63
2022/10/14 07:33:58;;;;;;;13.88;7.75;;;12.30;99.90;;;;;;5052967;28;20087;-62
2022/10/14 07:36:25;;;;;;;24.90;14.75;;;12.30;99.90;;;;;;5051890;28;20391;-62
2022/10/14 07:38:52;;;;;;;28.00;17.92;;;12.40;99.90;;;;;;5053693;28;20076;-64
2022/10/14 07:41:40;;;;;;;19.70;14.13;;;12.50;99.90;;;;;;5053092;28;20477;-63
2022/10/14 07:44:08;;;;;;;18.90;10.10;;;12.60;99.90;;;;;;5052897;28;20040;-63
2022/10/14 07:46:37;;;;;;;15.57;9.25;;;12.60;99.90;;;;;;5052320;28;20453;-63
2022/10/14 07:49:07;;;;;;;14.57;8.68;;;12.70;99.90;;;;;;5051777;28;20094;-63
2022/10/14 07:51:34;;;;;;;14.63;8.60;;;12.80;99.90;;;;;;5052043;28;20091;-64
2022/10/14 07:54:02;;;;;;;13.55;8.75;;;12.90;99.90;;;;;;5035040;28;20048;-63
2022/10/14 07:56:29;;;;;;;14.35;7.93;;;13.00;99.90;;;;;;5051939;28;20045;-64
2022/10/14 07:58:57;;;;;;;95.45;72.65;;;13.10;99.90;;;;;;5035512;28;20045;-65
2022/10/14 08:01:24;;;;;;;18.45;13.27;;;13.10;99.90;;;;;;5051723;28;20053;-64
2022/10/14 08:03:51;;;;;;;14.60;11.02;;;13.30;99.90;;;;;;5051439;28;20527;-64
2022/10/14 08:06:17;;;;;;;13.63;8.43;;;13.30;99.90;;;;;;5035353;28;20041;-64
2022/10/14 08:08:44;;;;;;;9.82;6.72;;;13.40;99.90;;;;;;5052066;28;20391;-64
2022/10/14 08:11:14;;;;;;;14.07;7.45;;;13.50;99.90;;;;;;5051744;28;20068;-64
2022/10/14 08:13:41;;;;;;;10.85;7.45;;;13.60;99.90;;;;;;5053744;28;20106;-64
2022/10/14 08:16:18;;;;;;;9.77;6.50;;;13.70;99.90;;;;;;5053084;28;20041;-64
2022/10/14 08:18:46;;;;;;;12.85;7.45;;;13.80;99.90;;;;;;5052564;28;20048;-64
2022/10/14 08:21:13;;;;;;;18.13;7.13;;;14.00;99.90;;;;;;5052519;28;20476;-64
2022/10/14 08:23:40;;;;;;;33.22;28.40;;;14.10;99.90;;;;;;5051285;28;20550;-66
2022/10/14 08:26:31;;;;;;;19.95;15.02;;;14.10;99.90;;;;;;5051189;28;20099;-66
2022/10/14 08:29:00;;;;;;;10.82;6.88;;;14.20;99.90;;;;;;5079375;28;20049;-66
2022/10/14 08:31:27;;;;;;;10.93;6.18;;;14.30;99.90;;;;;;5034880;28;20071;-65
2022/10/14 08:33:53;;;;;;;9.23;5.82;;;14.30;99.90;;;;;;5050997;28;20539;-63
2022/10/14 08:36:20;;;;;;;6.82;4.78;;;14.30;99.90;;;;;;5053411;28;20041;-63
2022/10/14 08:38:47;;;;;;;11.50;6.05;;;14.30;99.90;;;;;;5052603;28;20171;-62
2022/10/14 08:41:36;;;;;;;11.05;4.93;;;14.40;99.90;;;;;;5051335;28;20104;-61
2022/10/14 08:44:09;;;;;;;10.93;6.47;;;14.40;99.90;;;;;;5053296;28;20048;-61
2022/10/14 08:46:38;;;;;;;7.60;4.10;;;14.40;99.90;;;;;;5053132;28;20041;-61
2022/10/14 08:49:22;;;;;;;;;;;14.50;99.90;;;;;;5051707;28;20045;-61
2022/10/14 08:51:55;;;;;;;8.10;4.25;;;14.50;99.90;;;;;;5085057;28;20344;-62
2022/10/14 08:54:35;;;;;;;9.20;4.80;;;14.60;99.90;;;;;;5051693;28;20457;-61
2022/10/14 08:57:03;;;;;;;9.93;4.63;;;14.70;99.90;;;;;;5054930;28;20044;-61
2022/10/14 08:59:31;;;;;;;7.45;4.68;;;14.70;99.90;;;;;;5038214;28;20041;-61
2022/10/14 09:02:01;;;;;;;9.07;5.07;;;14.80;99.90;;;;;;5038478;28;20105;-61
2022/10/14 09:04:28;;;;;;;8.32;4.32;;;14.80;99.90;;;;;;5054871;28;20056;-61
2022/10/14 09:06:55;;;;;;;8.55;4.93;;;14.90;99.90;;;;;;5055502;28;20447;-62
2022/10/14 09:09:25;;;;;;;7.35;4.97;;;15.00;99.90;;;;;;5055442;28;20428;-61
2022/10/14 09:12:00;;;;;;;9.85;4.80;;;15.00;99.90;;;;;;5054852;28;20052;-61
2022/10/14 09:14:30;;;;;;;9.20;4.78;;;15.10;99.90;;;;;;5055103;28;20045;-61
2022/10/14 09:17:05;;;;;;;7.95;4.25;;;15.20;99.90;;;;;;5054626;28;20048;-61
2022/10/14 09:19:36;;;;;;;7.85;3.78;;;15.30;99.90;;;;;;5055158;28;20442;-62
2022/10/14 09:22:10;;;;;;;7.53;3.55;;;15.40;99.90;;;;;;5038779;28;20106;-61
2022/10/14 09:24:37;;;;;;;12.80;4.22;;;15.50;99.90;;;;;;5054282;28;20053;-61
2022/10/14 09:27:17;;;;;;;9.60;3.60;;;15.50;99.90;;;;;;5056158;28;20045;-61
2022/10/14 09:30:07;;;;;;;7.07;2.95;;;15.60;99.90;;;;;;5055456;28;20489;-61
2022/10/14 09:32:56;;;;;;;6.25;3.03;;;15.70;99.90;;;;;;5038572;28;20391;-61
2022/10/14 09:35:25;;;;;;;7.03;3.63;;;15.70;99.90;;;;;;5054725;28;20091;-61
2022/10/14 09:37:52;;;;;;;5.97;3.00;;;15.80;99.90;;;;;;5054246;28;20495;-61
2022/10/14 09:40:40;;;;;;;5.25;2.80;;;15.90;99.90;;;;;;5055987;28;20045;-62
2022/10/14 09:43:10;;;;;;;7.15;3.10;;;15.90;99.90;;;;;;5054068;28;20075;-62
2022/10/14 09:45:56;;;;;;;5.57;2.67;;;16.00;99.90;;;;;;5055390;28;20044;-61
2022/10/14 09:48:41;;;;;;;5.70;2.97;;;16.10;99.90;;;;;;5054998;28;20049;-62
2022/10/14 09:51:08;;;;;;;5.85;2.97;;;16.20;99.90;;;;;;5056186;28;20045;-61
2022/10/14 09:53:44;;;;;;;7.18;3.47;;;16.20;99.90;;;;;;5054333;28;20120;-61
2022/10/14 09:56:11;;;;;;;6.10;2.20;;;16.30;99.90;;;;;;5038504;28;20045;-62
2022/10/14 09:58:42;;;;;;;4.75;2.20;;;16.30;99.90;;;;;;5054612;28;20041;-62
2022/10/14 10:01:17;;;;;;;4.68;3.03;;;16.20;99.90;;;;;;5054630;28;20068;-61
2022/10/14 10:03:45;;;;;;;24.27;21.67;;;16.30;99.90;;;;;;5036975;28;20058;-64
2022/10/14 10:06:14;;;;;;;11.98;9.13;;;16.40;99.90;;;;;;5069862;28;20453;-68
2022/10/14 10:08:56;;;;;;;8.70;6.93;;;16.50;99.90;;;;;;5052984;28;20070;-64
2022/10/14 10:11:27;;;;;;;10.25;7.60;;;16.60;99.90;;;;;;5055015;28;20436;-65
2022/10/14 10:13:54;;;;;;;16.08;8.45;;;16.70;99.90;;;;;;5053199;28;20041;-63
2022/10/14 10:16:30;;;;;;;11.95;5.30;;;16.80;99.90;;;;;;5053122;28;20098;-64
2022/10/14 10:19:00;;;;;;;7.07;3.35;;;16.90;99.90;;;;;;5053395;28;20048;-65
2022/10/14 10:21:30;;;;;;;4.50;2.38;;;16.90;99.90;;;;;;5055262;28;20053;-64
2022/10/14 10:23:59;;;;;;;3.65;2.15;;;17.00;99.90;;;;;;5055343;28;20437;-64
2022/10/14 10:26:31;;;;;;;5.73;2.60;;;16.90;99.90;;;;;;5053069;28;20044;-64
2022/10/14 10:29:04;;;;;;;5.72;2.75;;;16.90;99.90;;;;;;5053815;28;20044;-66
2022/10/14 10:31:37;;;;;;;5.20;2.53;;;17.00;99.90;;;;;;5036749;28;20045;-64
2022/10/14 10:34:28;;;;;;;7.55;3.53;;;17.00;99.90;;;;;;5054141;28;20076;-64
2022/10/14 10:37:04;;;;;;;4.70;2.40;;;17.00;99.90;;;;;;5052801;28;20041;-67
2022/10/14 10:39:50;;;;;;;8.63;2.80;;;17.00;99.90;;;;;;5036652;28;20060;-64
2022/10/14 10:42:22;;;;;;;5.32;2.80;;;17.10;99.90;;;;;;5052794;28;20051;-63
2022/10/14 10:44:58;;;;;;;5.38;2.28;;;17.10;99.90;;;;;;5053529;28;20049;-64
2022/10/14 10:47:47;;;;;;;5.35;2.38;;;17.10;99.90;;;;;;5037287;28;20049;-62
2022/10/14 10:50:17;;;;;;;;;;;17.20;99.90;;;;;;5053460;28;20068;-62
2022/10/14 10:53:02;;;;;;;54.65;48.60;;;17.20;99.90;;;;;;5052942;28;20003;-60
2022/10/14 10:55:55;;;;;;;7.47;5.22;;;17.20;99.90;;;;;;5054982;28;20099;-62
2022/10/14 10:58:49;;;;;;;5.75;3.53;;;17.20;99.90;;;;;;5053805;28;20516;-65
2022/10/14 11:01:30;;;;;;;7.78;3.40;;;17.00;99.90;;;;;;5053681;28;20048;-62
2022/10/14 11:04:03;;;;;;;7.47;3.22;;;16.90;99.90;;;;;;5052358;28;20044;-64
2022/10/14 11:12:42;;;;;;;10.00;5.32;;;16.80;99.90;;;;;;5052521;28;20045;-64
2022/10/14 11:15:16;;;;;;;7.18;3.35;;;16.70;99.90;;;;;;5052013;28;20073;-64
2022/10/14 11:18:02;;;;;;;5.97;2.80;;;16.60;99.90;;;;;;5053044;28;20072;-62
2022/10/14 11:20:37;;;;;;;15.48;8.45;;;16.60;99.90;;;;;;5052188;28;20270;-61
2022/10/14 11:23:29;;;;;;;97.05;77.85;;;16.60;99.90;;;;;;5052041;28;20094;-62
2022/10/14 11:26:19;;;;;;;15.52;10.63;;;16.60;99.90;;;;;;5053002;28;20045;-61
2022/10/14 11:28:59;;;;;;;9.32;4.82;;;16.70;99.90;;;;;;5053171;28;20064;-61
2022/10/14 11:31:55;;;;;;;8.65;4.47;;;16.80;99.90;;;;;;5053888;28;20040;-62
2022/10/14 11:34:43;;;;;;;5.57;3.38;;;16.80;99.90;;;;;;5051983;28;20056;-63
2022/10/14 11:37:19;;;;;;;8.43;3.88;;;16.90;99.90;;;;;;5053818;28;20045;-62
2022/10/14 11:39:48;;;;;;;8.43;3.75;;;17.00;99.90;;;;;;5053430;28;20041;-62
2022/10/14 11:42:23;;;;;;;7.40;3.20;;;17.10;99.90;;;;;;5035794;28;20122;-62
2022/10/14 11:45:31;;;;;;;8.10;4.35;;;17.20;99.90;;;;;;5051713;28;20049;-62
2022/10/14 11:48:12;;;;;;;5.30;3.10;;;17.20;99.90;;;;;;5050585;28;20535;-64
2022/10/14 11:50:40;;;;;;;9.07;3.55;;;17.30;99.90;;;;;;5035659;28;20515;-64
2022/10/14 11:53:17;;;;;;;5.38;3.38;;;17.30;99.90;;;;;;5035643;28;20045;-66
2022/10/14 11:56:01;;;;;;;6.05;3.30;;;17.50;99.90;;;;;;5034973;28;20451;-62
2022/10/14 11:58:28;;;;;;;8.10;4.07;;;17.60;99.90;;;;;;5051813;28;20052;-62
2022/10/14 12:00:55;;;;;;;7.55;4.40;;;17.70;99.90;;;;;;5051815;28;20135;-62
2022/10/14 12:03:25;;;;;;;8.43;3.58;;;17.70;99.90;;;;;;5051337;28;20045;-62
2022/10/14 12:06:04;;;;;;;6.55;3.38;;;17.60;99.90;;;;;;5052921;28;20052;-62
2022/10/14 12:08:40;;;;;;;7.53;3.42;;;17.60;99.90;;;;;;5051306;28;20498;-62
2022/10/14 12:11:29;;;;;;;5.32;3.38;;;17.60;99.90;;;;;;5052310;28;20111;-62
2022/10/14 12:14:12;;;;;;;7.20;3.45;;;17.70;99.90;;;;;;5051764;28;20044;-62
2022/10/14 12:16:40;;;;;;;4.35;2.95;;;17.70;99.90;;;;;;5034647;28;20048;-63
2022/10/14 12:19:08;;;;;;;5.32;2.88;;;17.70;99.90;;;;;;5051101;28;20464;-63
2022/10/14 12:22:08;;;;;;;7.57;3.30;;;17.70;99.90;;;;;;5051533;28;20044;-66
2022/10/14 12:24:39;;;;;;;6.60;3.50;;;17.70;99.90;;;;;;5040582;28;20473;-63
2022/10/14 12:27:08;;;;;;;13.65;3.60;;;17.70;99.90;;;;;;5034862;28;20052;-63
2022/10/14 12:30:02;;;;;;;;;;;17.70;99.90;;;;;;5035712;28;20484;-66
2022/10/14 12:32:29;;;;;;;8.32;5.68;;;17.70;99.90;;;;;;5057101;28;19916;-66
2022/10/14 12:34:57;;;;;;;5.60;2.63;;;17.80;99.90;;;;;;5038650;28;20095;-66
2022/10/14 12:37:24;;;;;;;5.28;3.28;;;17.80;99.90;;;;;;5055342;28;20071;-66
2022/10/14 12:40:05;;;;;;;6.88;2.70;;;17.80;99.90;;;;;;5056591;28;20041;-66
2022/10/14 12:42:42;;;;;;;5.43;2.80;;;17.70;99.90;;;;;;5056884;28;20045;-66
2022/10/14 12:45:21;;;;;;;9.23;4.90;;;17.60;99.90;;;;;;5040491;28;20045;-66
2022/10/14 12:48:01;;;;;;;7.70;3.17;;;17.60;99.90;;;;;;5039178;28;20078;-66
2022/10/14 12:50:38;;;;;;;5.70;3.33;;;17.60;99.90;;;;;;5056055;28;20610;-66
2022/10/14 12:53:12;;;;;;;6.20;3.08;;;17.60;99.90;;;;;;5038830;28;20047;-66
2022/10/14 12:56:00;;;;;;;5.93;3.17;;;17.60;99.90;;;;;;5054743;28;20477;-66
2022/10/14 12:58:39;;;;;;;5.25;2.50;;;17.60;99.90;;;;;;5055725;28;20095;-66
2022/10/14 13:01:17;;;;;;;5.97;2.88;;;17.70;99.90;;;;;;5054815;28;20052;-66
2022/10/14 13:04:06;;;;;;;6.38;3.38;;;17.70;99.90;;;;;;5038982;28;20381;-66
2022/10/14 13:06:37;;;;;;;4.95;2.75;;;17.60;99.90;;;;;;5054486;28;20402;-66
2022/10/14 13:09:11;;;;;;;6.55;3.75;;;17.60;99.90;;;;;;5038488;28;20095;-66